sensor_id;sensor_type;location;lat;lon;timestamp;pressure;altitude;pressure_sealevel;temperature;humidity
68634;BME280;55625;47.072;22.192;2023-06-14T00:02:09;99470.53;;;11.20;100.00
68634;BME280;55625;47.072;22.192;2023-06-14T00:04:35;99475.91;;;11.18;100.00
68634;BME280;55625;47.072;22.192;2023-06-14T00:07:03;99472.09;;;11.12;100.00
68634;BME280;55625;47.072;22.192;2023-06-14T00:09:29;99483.72;;;11.05;100.00
68634;BME280;55625;47.072;22.192;2023-06-14T00:11:55;99481.66;;;11.05;100.00
68634;BME280;55625;47.072;22.192;2023-06-14T00:14:21;99481.19;;;11.07;100.00
68634;BME280;55625;47.072;22.192;2023-06-14T00:16:46;99477.56;;;11.06;100.00
68634;BME280;55625;47.072;22.192;2023-06-14T00:19:13;99487.81;;;11.04;100.00
68634;BME280;55625;47.072;22.192;2023-06-14T00:21:39;99490.97;;;11.06;100.00
68634;BME280;55625;47.072;22.192;2023-06-14T00:24:05;99480.88;;;11.05;100.00
68634;BME280;55625;47.072;22.192;2023-06-14T00:26:31;99484.03;;;11.07;100.00
68634;BME280;55625;47.072;22.192;2023-06-14T00:28:57;99479.16;;;11.07;100.00
68634;BME280;55625;47.072;22.192;2023-06-14T00:31:23;99492.88;;;11.09;100.00
68634;BME280;55625;47.072;22.192;2023-06-14T00:33:49;99486.88;;;11.07;100.00
68634;BME280;55625;47.072;22.192;2023-06-14T00:36:15;99480.88;;;11.05;100.00
68634;BME280;55625;47.072;22.192;2023-06-14T00:38:40;99481.34;;;11.03;100.00
68634;BME280;55625;47.072;22.192;2023-06-14T00:41:06;99491.91;;;11.03;100.00
68634;BME280;55625;47.072;22.192;2023-06-14T00:43:32;99482.47;;;11.06;100.00
68634;BME280;55625;47.072;22.192;2023-06-14T00:46:00;99490.97;;;11.06;100.00
68634;BME280;55625;47.072;22.192;2023-06-14T00:48:27;99484.69;;;11.11;100.00
68634;BME280;55625;47.072;22.192;2023-06-14T00:50:54;99481.53;;;11.09;100.00
68634;BME280;55625;47.072;22.192;2023-06-14T00:53:20;99477.56;;;11.06;100.00
68634;BME280;55625;47.072;22.192;2023-06-14T00:55:48;99487.22;;;11.09;100.00
68634;BME280;55625;47.072;22.192;2023-06-14T00:58:14;99479.63;;;11.06;100.00
68634;BME280;55625;47.072;22.192;2023-06-14T01:00:40;99484.19;;;11.03;100.00
68634;BME280;55625;47.072;22.192;2023-06-14T01:03:06;99483.03;;;11.01;100.00
68634;BME280;55625;47.072;22.192;2023-06-14T01:05:33;99488.72;;;11.01;100.00
68634;BME280;55625;47.072;22.192;2023-06-14T01:11:14;99486.22;;;11.03;100.00
68634;BME280;55625;47.072;22.192;2023-06-14T01:13:46;99484.63;;;11.02;100.00
68634;BME280;55625;47.072;22.192;2023-06-14T01:16:12;99490.97;;;11.06;100.00
68634;BME280;55625;47.072;22.192;2023-06-14T01:18:39;99489.16;;;10.99;100.00
68634;BME280;55625;47.072;22.192;2023-06-14T01:21:23;99485.69;;;10.95;100.00
68634;BME280;55625;47.072;22.192;2023-06-14T01:23:50;99489.31;;;10.96;100.00
68634;BME280;55625;47.072;22.192;2023-06-14T01:26:23;99481.25;;;10.94;100.00
68634;BME280;55625;47.072;22.192;2023-06-14T01:28:50;99487.06;;;10.91;100.00
68634;BME280;55625;47.072;22.192;2023-06-14T01:31:20;99486.22;;;10.81;100.00
68634;BME280;55625;47.072;22.192;2023-06-14T01:33:49;99477.50;;;10.75;100.00
68634;BME280;55625;47.072;22.192;2023-06-14T01:36:19;99486.16;;;10.72;100.00
68634;BME280;55625;47.072;22.192;2023-06-14T01:38:47;99486.16;;;10.72;100.00
68634;BME280;55625;47.072;22.192;2023-06-14T01:41:17;99484.22;;;10.69;100.00
68634;BME280;55625;47.072;22.192;2023-06-14T01:43:44;99477.72;;;10.68;100.00
68634;BME280;55625;47.072;22.192;2023-06-14T01:46:12;99483.53;;;10.65;100.00
68634;BME280;55625;47.072;22.192;2023-06-14T01:48:38;99491.25;;;10.64;100.00
68634;BME280;55625;47.072;22.192;2023-06-14T01:51:04;99486.19;;;10.59;100.00
68634;BME280;55625;47.072;22.192;2023-06-14T01:53:30;99497.19;;;10.57;100.00
68634;BME280;55625;47.072;22.192;2023-06-14T01:55:56;99500.03;;;10.57;100.00
68634;BME280;55625;47.072;22.192;2023-06-14T01:58:22;99490.53;;;10.51;100.00
68634;BME280;55625;47.072;22.192;2023-06-14T02:00:49;99495.41;;;10.50;100.00
68634;BME280;55625;47.072;22.192;2023-06-14T02:03:16;99500.28;;;10.50;100.00
68634;BME280;55625;47.072;22.192;2023-06-14T02:05:43;99501.22;;;10.47;100.00
68634;BME280;55625;47.072;22.192;2023-06-14T02:08:08;99509.72;;;10.47;100.00
68634;BME280;55625;47.072;22.192;2023-06-14T02:10:34;99502.13;;;10.44;100.00
68634;BME280;55625;47.072;22.192;2023-06-14T02:13:00;99506.44;;;10.36;100.00
68634;BME280;55625;47.072;22.192;2023-06-14T02:15:26;99512.44;;;10.38;100.00
68634;BME280;55625;47.072;22.192;2023-06-14T02:18:02;99504.19;;;10.31;100.00
68634;BME280;55625;47.072;22.192;2023-06-14T02:20:29;99518.84;;;10.29;100.00
68634;BME280;55625;47.072;22.192;2023-06-14T02:22:55;99518.03;;;10.29;100.00
68634;BME280;55625;47.072;22.192;2023-06-14T02:25:20;99517.13;;;10.32;100.00
68634;BME280;55625;47.072;22.192;2023-06-14T02:27:46;99517.72;;;10.26;100.00
68634;BME280;55625;47.072;22.192;2023-06-14T02:30:13;99523.72;;;10.29;100.00
68634;BME280;55625;47.072;22.192;2023-06-14T02:32:38;99523.38;;;10.26;100.00
68634;BME280;55625;47.072;22.192;2023-06-14T02:35:07;99520.53;;;10.26;100.00
68634;BME280;55625;47.072;22.192;2023-06-14T02:37:33;99522.13;;;10.27;100.00
68634;BME280;55625;47.072;22.192;2023-06-14T02:39:59;99523.13;;;10.34;100.00
68634;BME280;55625;47.072;22.192;2023-06-14T02:42:25;99518.13;;;10.38;100.00
68634;BME280;55625;47.072;22.192;2023-06-14T02:44:51;99530.50;;;10.44;100.00
68634;BME280;55625;47.072;22.192;2023-06-14T02:47:18;99523.56;;;10.45;100.00
68634;BME280;55625;47.072;22.192;2023-06-14T02:49:44;99523.56;;;10.45;100.00
68634;BME280;55625;47.072;22.192;2023-06-14T02:52:12;99524.84;;;10.44;100.00
68634;BME280;55625;47.072;22.192;2023-06-14T02:54:38;99524.59;;;10.38;100.00
68634;BME280;55625;47.072;22.192;2023-06-14T02:57:04;99531.06;;;10.39;100.00
68634;BME280;55625;47.072;22.192;2023-06-14T02:59:32;99527.44;;;10.38;100.00
68634;BME280;55625;47.072;22.192;2023-06-14T03:01:58;99527.56;;;10.35;100.00
68634;BME280;55625;47.072;22.192;2023-06-14T03:04:24;99518.72;;;10.33;100.00
68634;BME280;55625;47.072;22.192;2023-06-14T03:06:52;99521.09;;;10.34;100.00
68634;BME280;55625;47.072;22.192;2023-06-14T03:09:19;99525.06;;;10.37;100.00
68634;BME280;55625;47.072;22.192;2023-06-14T03:11:45;99529.47;;;10.38;100.00
68634;BME280;55625;47.072;22.192;2023-06-14T03:14:11;99533.09;;;10.38;100.00
68634;BME280;55625;47.072;22.192;2023-06-14T03:16:39;99528.59;;;10.41;100.00
68634;BME280;55625;47.072;22.192;2023-06-14T03:19:06;99522.53;;;10.39;100.00
68634;BME280;55625;47.072;22.192;2023-06-14T03:21:32;99525.28;;;10.42;100.00
68634;BME280;55625;47.072;22.192;2023-06-14T03:24:00;99526.53;;;10.41;100.00
68634;BME280;55625;47.072;22.192;2023-06-14T03:26:26;99522.53;;;10.39;100.00
68634;BME280;55625;47.072;22.192;2023-06-14T03:28:51;99524.94;;;10.40;100.00
68634;BME280;55625;47.072;22.192;2023-06-14T03:31:17;99531.75;;;10.43;100.00
68634;BME280;55625;47.072;22.192;2023-06-14T03:33:44;99528.91;;;10.43;100.00
68634;BME280;55625;47.072;22.192;2023-06-14T03:36:10;99532.88;;;10.45;100.00
68634;BME280;55625;47.072;22.192;2023-06-14T03:38:36;99528.47;;;10.44;100.00
68634;BME280;55625;47.072;22.192;2023-06-14T03:41:02;99526.63;;;10.50;100.00
68634;BME280;55625;47.072;22.192;2023-06-14T03:43:28;99531.50;;;10.50;100.00
68634;BME280;55625;47.072;22.192;2023-06-14T03:45:55;99526.16;;;10.52;100.00
68634;BME280;55625;47.072;22.192;2023-06-14T03:48:21;99522.59;;;10.61;100.00
68634;BME280;55625;47.072;22.192;2023-06-14T03:50:47;99523.84;;;10.72;100.00
68634;BME280;55625;47.072;22.192;2023-06-14T03:53:13;99529.38;;;10.76;100.00
68634;BME280;55625;47.072;22.192;2023-06-14T03:55:39;99528.47;;;10.79;100.00
68634;BME280;55625;47.072;22.192;2023-06-14T03:58:05;99526.47;;;10.88;100.00
68634;BME280;55625;47.072;22.192;2023-06-14T04:00:31;99521.19;;;11.00;100.00
68634;BME280;55625;47.072;22.192;2023-06-14T04:02:57;99525.44;;;11.17;100.00
68634;BME280;55625;47.072;22.192;2023-06-14T04:05:24;99536.25;;;11.31;100.00
68634;BME280;55625;47.072;22.192;2023-06-14T04:07:52;99532.56;;;11.43;100.00
68634;BME280;55625;47.072;22.192;2023-06-14T04:10:21;99531.22;;;11.57;100.00
68634;BME280;55625;47.072;22.192;2023-06-14T04:12:47;99533.38;;;11.75;100.00
68634;BME280;55625;47.072;22.192;2023-06-14T04:15:13;99533.94;;;11.92;100.00
68634;BME280;55625;47.072;22.192;2023-06-14T04:17:39;99530.84;;;12.08;100.00
68634;BME280;55625;47.072;22.192;2023-06-14T04:20:06;99523.13;;;12.18;100.00
68634;BME280;55625;47.072;22.192;2023-06-14T04:22:34;99534.88;;;12.29;100.00
68634;BME280;55625;47.072;22.192;2023-06-14T04:25:00;99532.69;;;12.42;100.00
68634;BME280;55625;47.072;22.192;2023-06-14T04:27:27;99533.97;;;12.50;100.00
68634;BME280;55625;47.072;22.192;2023-06-14T04:29:54;99532.53;;;12.55;100.00
68634;BME280;55625;47.072;22.192;2023-06-14T04:32:28;99542.53;;;12.68;100.00
68634;BME280;55625;47.072;22.192;2023-06-14T04:34:59;99541.28;;;12.79;100.00
68634;BME280;55625;47.072;22.192;2023-06-14T04:37:29;99541.13;;;12.91;100.00
68634;BME280;55625;47.072;22.192;2023-06-14T04:39:56;99537.94;;;13.07;100.00
68634;BME280;55625;47.072;22.192;2023-06-14T04:42:23;99535.78;;;13.21;100.00
68634;BME280;55625;47.072;22.192;2023-06-14T04:44:51;99543.66;;;13.35;100.00
68634;BME280;55625;47.072;22.192;2023-06-14T04:47:21;99544.59;;;13.50;100.00
68634;BME280;55625;47.072;22.192;2023-06-14T04:49:47;99541.88;;;13.65;100.00
68634;BME280;55625;47.072;22.192;2023-06-14T04:52:13;99542.13;;;13.76;100.00
68634;BME280;55625;47.072;22.192;2023-06-14T04:54:40;99539.88;;;13.89;100.00
68634;BME280;55625;47.072;22.192;2023-06-14T04:57:09;99545.56;;;13.98;99.72
68634;BME280;55625;47.072;22.192;2023-06-14T04:59:40;99548.72;;;14.01;99.67
68634;BME280;55625;47.072;22.192;2023-06-14T05:02:06;99543.13;;;14.06;98.16
68634;BME280;55625;47.072;22.192;2023-06-14T05:04:32;99540.88;;;14.19;97.42
68634;BME280;55625;47.072;22.192;2023-06-14T05:06:58;99551.13;;;14.26;95.24
68634;BME280;55625;47.072;22.192;2023-06-14T05:09:24;99554.91;;;14.32;93.14
68634;BME280;55625;47.072;22.192;2023-06-14T05:11:50;99550.44;;;14.40;93.95
68634;BME280;55625;47.072;22.192;2023-06-14T05:14:16;99551.63;;;14.57;94.49
68634;BME280;55625;47.072;22.192;2023-06-14T05:16:43;99553.28;;;14.73;93.69
68634;BME280;55625;47.072;22.192;2023-06-14T05:19:09;99558.06;;;14.91;93.37
68634;BME280;55625;47.072;22.192;2023-06-14T05:21:36;99557.03;;;15.03;92.98
68634;BME280;55625;47.072;22.192;2023-06-14T05:24:03;99556.66;;;15.10;91.13
68634;BME280;55625;47.072;22.192;2023-06-14T05:26:28;99560.03;;;15.23;91.48
68634;BME280;55625;47.072;22.192;2023-06-14T05:28:56;99566.19;;;15.46;92.13
68634;BME280;55625;47.072;22.192;2023-06-14T05:31:25;99566.84;;;15.65;90.72
68634;BME280;55625;47.072;22.192;2023-06-14T05:33:52;99572.06;;;15.81;88.15
68634;BME280;55625;47.072;22.192;2023-06-14T05:36:19;99572.94;;;15.87;87.23
68634;BME280;55625;47.072;22.192;2023-06-14T05:38:45;99568.56;;;15.92;88.35
68634;BME280;55625;47.072;22.192;2023-06-14T05:41:11;99569.88;;;16.05;86.88
68634;BME280;55625;47.072;22.192;2023-06-14T05:43:37;99567.59;;;16.24;86.63
68634;BME280;55625;47.072;22.192;2023-06-14T05:46:03;99567.75;;;16.35;85.77
68634;BME280;55625;47.072;22.192;2023-06-14T05:48:30;99565.91;;;16.53;84.92
68634;BME280;55625;47.072;22.192;2023-06-14T05:50:56;99566.09;;;16.64;83.70
68634;BME280;55625;47.072;22.192;2023-06-14T05:53:22;99559.41;;;16.87;83.31
68634;BME280;55625;47.072;22.192;2023-06-14T05:55:48;99567.25;;;17.13;84.27
68634;BME280;55625;47.072;22.192;2023-06-14T05:58:14;99564.44;;;17.38;84.88
68634;BME280;55625;47.072;22.192;2023-06-14T06:00:40;99565.31;;;17.71;85.00
68634;BME280;55625;47.072;22.192;2023-06-14T06:03:06;99571.97;;;17.82;80.71
68634;BME280;55625;47.072;22.192;2023-06-14T06:05:34;99574.91;;;17.88;81.67
68634;BME280;55625;47.072;22.192;2023-06-14T06:08:00;99574.06;;;18.13;81.22
68634;BME280;55625;47.072;22.192;2023-06-14T06:10:26;99568.47;;;18.36;78.97
68634;BME280;55625;47.072;22.192;2023-06-14T06:12:52;99568.03;;;18.43;76.16
68634;BME280;55625;47.072;22.192;2023-06-14T06:15:20;99571.50;;;18.52;79.37
68634;BME280;55625;47.072;22.192;2023-06-14T06:17:46;99567.50;;;18.76;79.02
68634;BME280;55625;47.072;22.192;2023-06-14T06:20:12;99568.06;;;18.91;78.22
68634;BME280;55625;47.072;22.192;2023-06-14T06:22:38;99577.50;;;18.97;77.29
68634;BME280;55625;47.072;22.192;2023-06-14T06:25:05;99566.25;;;18.93;76.63
68634;BME280;55625;47.072;22.192;2023-06-14T06:27:32;99575.72;;;19.00;76.89
68634;BME280;55625;47.072;22.192;2023-06-14T06:29:58;99568.69;;;19.12;76.92
68634;BME280;55625;47.072;22.192;2023-06-14T06:32:24;99577.91;;;19.27;76.92
68634;BME280;55625;47.072;22.192;2023-06-14T06:34:50;99576.94;;;19.52;76.12
68634;BME280;55625;47.072;22.192;2023-06-14T06:37:17;99578.56;;;19.59;73.21
68634;BME280;55625;47.072;22.192;2023-06-14T06:39:43;99582.25;;;19.71;75.33
68634;BME280;55625;47.072;22.192;2023-06-14T06:42:09;99585.72;;;19.97;75.04
68634;BME280;55625;47.072;22.192;2023-06-14T06:44:36;99579.41;;;20.10;72.70
68634;BME280;55625;47.072;22.192;2023-06-14T06:47:02;99590.69;;;20.13;71.93
68634;BME280;55625;47.072;22.192;2023-06-14T06:49:28;99585.97;;;20.10;70.93
68634;BME280;55625;47.072;22.192;2023-06-14T06:52:03;99584.66;;;20.06;70.97
68634;BME280;55625;47.072;22.192;2023-06-14T06:54:29;99587.56;;;20.23;70.00
68634;BME280;55625;47.072;22.192;2023-06-14T06:56:55;99593.03;;;20.37;68.95
68634;BME280;55625;47.072;22.192;2023-06-14T06:59:21;99595.69;;;20.41;67.31
68634;BME280;55625;47.072;22.192;2023-06-14T07:01:47;99595.94;;;20.43;68.79
68634;BME280;55625;47.072;22.192;2023-06-14T07:04:13;99594.38;;;20.53;68.38
68634;BME280;55625;47.072;22.192;2023-06-14T07:06:39;99594.13;;;20.51;69.70
68634;BME280;55625;47.072;22.192;2023-06-14T07:09:05;99599.88;;;20.62;66.77
68634;BME280;55625;47.072;22.192;2023-06-14T07:11:34;99598.28;;;20.72;65.10
68634;BME280;55625;47.072;22.192;2023-06-14T07:14:00;99596.94;;;20.85;64.67
68634;BME280;55625;47.072;22.192;2023-06-14T07:16:25;99596.91;;;20.96;62.71
68634;BME280;55625;47.072;22.192;2023-06-14T07:18:51;99597.66;;;21.07;65.61
68634;BME280;55625;47.072;22.192;2023-06-14T07:21:18;99593.97;;;21.18;63.88
68634;BME280;55625;47.072;22.192;2023-06-14T07:23:43;99595.00;;;21.21;62.49
68634;BME280;55625;47.072;22.192;2023-06-14T07:26:09;99594.22;;;21.20;62.71
68634;BME280;55625;47.072;22.192;2023-06-14T07:28:35;99600.19;;;21.45;65.59
68634;BME280;55625;47.072;22.192;2023-06-14T07:31:01;99583.56;;;21.56;64.18
68634;BME280;55625;47.072;22.192;2023-06-14T07:33:28;99584.28;;;21.68;61.76
68634;BME280;55625;47.072;22.192;2023-06-14T07:35:54;99584.47;;;21.81;63.88
68634;BME280;55625;47.072;22.192;2023-06-14T07:38:19;99582.25;;;21.98;59.70
68634;BME280;55625;47.072;22.192;2023-06-14T07:40:46;99586.13;;;22.12;57.92
68634;BME280;55625;47.072;22.192;2023-06-14T07:43:11;99583.78;;;22.11;58.38
68634;BME280;55625;47.072;22.192;2023-06-14T07:45:37;99589.88;;;22.31;56.31
68634;BME280;55625;47.072;22.192;2023-06-14T07:48:04;99587.78;;;22.32;58.20
68634;BME280;55625;47.072;22.192;2023-06-14T07:50:30;99592.41;;;22.46;56.99
68634;BME280;55625;47.072;22.192;2023-06-14T07:52:56;99599.41;;;22.56;56.19
68634;BME280;55625;47.072;22.192;2023-06-14T07:55:22;99588.75;;;22.70;57.27
68634;BME280;55625;47.072;22.192;2023-06-14T07:57:47;99599.94;;;22.85;57.68
68634;BME280;55625;47.072;22.192;2023-06-14T08:00:14;99587.34;;;23.07;57.63
68634;BME280;55625;47.072;22.192;2023-06-14T08:02:44;99593.94;;;23.26;56.67
68634;BME280;55625;47.072;22.192;2023-06-14T08:05:11;99595.69;;;23.53;56.38
68634;BME280;55625;47.072;22.192;2023-06-14T08:07:39;99598.19;;;23.44;52.33
68634;BME280;55625;47.072;22.192;2023-06-14T08:10:06;99591.22;;;23.34;51.82
68634;BME280;55625;47.072;22.192;2023-06-14T08:12:33;99595.53;;;23.27;55.62
68634;BME280;55625;47.072;22.192;2023-06-14T08:14:59;99589.72;;;23.46;53.87
68634;BME280;55625;47.072;22.192;2023-06-14T08:17:25;99604.94;;;23.52;55.97
68634;BME280;55625;47.072;22.192;2023-06-14T08:19:52;99597.00;;;23.58;52.70
68634;BME280;55625;47.072;22.192;2023-06-14T08:22:20;99593.03;;;23.37;51.64
68634;BME280;55625;47.072;22.192;2023-06-14T08:24:47;99596.56;;;23.48;56.79
68634;BME280;55625;47.072;22.192;2023-06-14T08:27:13;99606.78;;;23.74;54.79
68634;BME280;55625;47.072;22.192;2023-06-14T08:29:39;99602.47;;;23.80;52.36
68634;BME280;55625;47.072;22.192;2023-06-14T08:32:06;99615.09;;;23.64;52.91
68634;BME280;55625;47.072;22.192;2023-06-14T08:34:32;99610.63;;;23.63;51.31
68634;BME280;55625;47.072;22.192;2023-06-14T08:36:58;99611.00;;;23.92;54.12
68634;BME280;55625;47.072;22.192;2023-06-14T08:39:24;99614.00;;;24.18;50.40
68634;BME280;55625;47.072;22.192;2023-06-14T08:41:50;99610.13;;;23.97;51.56
68634;BME280;55625;47.072;22.192;2023-06-14T08:44:18;99608.84;;;23.36;53.22
68634;BME280;55625;47.072;22.192;2023-06-14T08:46:44;99619.38;;;23.58;54.35
68634;BME280;55625;47.072;22.192;2023-06-14T08:49:16;99613.72;;;24.03;46.32
68634;BME280;55625;47.072;22.192;2023-06-14T08:51:43;99621.72;;;23.97;48.79
68634;BME280;55625;47.072;22.192;2023-06-14T08:54:11;99619.84;;;23.99;47.53
68634;BME280;55625;47.072;22.192;2023-06-14T08:56:38;99617.28;;;23.52;47.60
68634;BME280;55625;47.072;22.192;2023-06-14T08:59:08;99620.72;;;23.75;50.35
68634;BME280;55625;47.072;22.192;2023-06-14T09:01:36;99625.28;;;23.90;51.55
68634;BME280;55625;47.072;22.192;2023-06-14T09:04:02;99619.34;;;24.14;48.20
68634;BME280;55625;47.072;22.192;2023-06-14T09:06:31;99619.81;;;24.18;50.06
68634;BME280;55625;47.072;22.192;2023-06-14T09:08:58;99621.41;;;23.81;47.55
68634;BME280;55625;47.072;22.192;2023-06-14T09:11:24;99620.16;;;23.96;48.13
68634;BME280;55625;47.072;22.192;2023-06-14T09:13:52;99628.16;;;23.90;50.61
68634;BME280;55625;47.072;22.192;2023-06-14T09:16:18;99628.94;;;24.28;50.97
68634;BME280;55625;47.072;22.192;2023-06-14T09:18:46;99615.97;;;24.61;51.91
68634;BME280;55625;47.072;22.192;2023-06-14T09:21:17;99624.88;;;25.08;50.44
68634;BME280;55625;47.072;22.192;2023-06-14T09:23:45;99636.53;;;25.34;49.79
68634;BME280;55625;47.072;22.192;2023-06-14T09:26:16;99628.34;;;25.59;45.54
68634;BME280;55625;47.072;22.192;2023-06-14T09:28:48;99635.16;;;25.62;46.18
68634;BME280;55625;47.072;22.192;2023-06-14T09:31:16;99636.94;;;25.65;47.09
68634;BME280;55625;47.072;22.192;2023-06-14T09:33:48;99634.63;;;25.11;47.83
68634;BME280;55625;47.072;22.192;2023-06-14T09:36:22;99636.19;;;25.25;46.91
68634;BME280;55625;47.072;22.192;2023-06-14T09:39:03;99634.75;;;25.18;48.65
68634;BME280;55625;47.072;22.192;2023-06-14T09:41:38;99637.88;;;24.30;47.15
68634;BME280;55625;47.072;22.192;2023-06-14T09:44:07;99637.13;;;23.24;50.95
68634;BME280;55625;47.072;22.192;2023-06-14T09:46:34;99636.31;;;23.72;50.44
68634;BME280;55625;47.072;22.192;2023-06-14T09:49:02;99629.72;;;24.28;48.69
68634;BME280;55625;47.072;22.192;2023-06-14T09:51:29;99625.13;;;24.65;49.84
68634;BME280;55625;47.072;22.192;2023-06-14T09:54:00;99631.44;;;24.82;50.04
68634;BME280;55625;47.072;22.192;2023-06-14T09:56:30;99631.72;;;25.11;49.01
68634;BME280;55625;47.072;22.192;2023-06-14T09:58:58;99629.94;;;25.21;47.32
68634;BME280;55625;47.072;22.192;2023-06-14T10:01:31;99622.44;;;25.38;50.06
68634;BME280;55625;47.072;22.192;2023-06-14T10:04:15;99624.56;;;25.38;46.26
68634;BME280;55625;47.072;22.192;2023-06-14T10:06:46;99627.91;;;25.02;48.53
68634;BME280;55625;47.072;22.192;2023-06-14T10:09:12;99622.47;;;24.35;50.55
68634;BME280;55625;47.072;22.192;2023-06-14T10:11:40;99635.38;;;23.64;51.90
68634;BME280;55625;47.072;22.192;2023-06-14T10:14:11;99645.78;;;23.92;51.87
68634;BME280;55625;47.072;22.192;2023-06-14T10:17:10;99630.34;;;24.21;49.83
68634;BME280;55625;47.072;22.192;2023-06-14T10:20:00;99624.47;;;24.59;46.05
68634;BME280;55625;47.072;22.192;2023-06-14T10:22:35;99622.91;;;24.58;46.19
68634;BME280;55625;47.072;22.192;2023-06-14T10:25:07;99626.53;;;24.90;46.56
68634;BME280;55625;47.072;22.192;2023-06-14T10:27:38;99636.28;;;24.10;48.54
68634;BME280;55625;47.072;22.192;2023-06-14T10:30:06;99643.00;;;23.18;50.99
68634;BME280;55625;47.072;22.192;2023-06-14T10:32:33;99640.13;;;22.58;52.09
68634;BME280;55625;47.072;22.192;2023-06-14T10:35:04;99636.94;;;22.62;52.70
68634;BME280;55625;47.072;22.192;2023-06-14T10:37:32;99632.34;;;22.48;52.88
68634;BME280;55625;47.072;22.192;2023-06-14T10:39:58;99634.03;;;22.68;53.57
68634;BME280;55625;47.072;22.192;2023-06-14T10:42:31;99634.38;;;22.88;54.00
68634;BME280;55625;47.072;22.192;2023-06-14T10:44:58;99628.41;;;23.48;57.41
68634;BME280;55625;47.072;22.192;2023-06-14T10:47:34;99623.63;;;23.75;51.98
68634;BME280;55625;47.072;22.192;2023-06-14T10:50:11;99620.78;;;24.07;51.10
68634;BME280;55625;47.072;22.192;2023-06-14T10:52:42;99622.84;;;23.94;50.63
68634;BME280;55625;47.072;22.192;2023-06-14T10:55:13;99614.59;;;23.98;51.74
68634;BME280;55625;47.072;22.192;2023-06-14T10:57:44;99623.13;;;24.09;52.63
68634;BME280;55625;47.072;22.192;2023-06-14T11:00:18;99622.28;;;23.95;53.00
68634;BME280;55625;47.072;22.192;2023-06-14T11:11:35;99607.81;;;23.52;51.85
68634;BME280;55625;47.072;22.192;2023-06-14T11:14:02;99610.69;;;23.76;53.27
68634;BME280;55625;47.072;22.192;2023-06-14T11:16:28;99607.19;;;24.15;51.72
68634;BME280;55625;47.072;22.192;2023-06-14T11:18:55;99610.09;;;24.34;48.64
68634;BME280;55625;47.072;22.192;2023-06-14T11:21:21;99609.50;;;24.68;50.88
68634;BME280;55625;47.072;22.192;2023-06-14T11:23:52;99606.16;;;24.77;48.91
68634;BME280;55625;47.072;22.192;2023-06-14T11:26:31;99594.81;;;24.34;48.09
68634;BME280;55625;47.072;22.192;2023-06-14T11:29:00;99591.44;;;24.62;47.23
68634;BME280;55625;47.072;22.192;2023-06-14T11:31:27;99594.59;;;24.32;49.19
68634;BME280;55625;47.072;22.192;2023-06-14T11:33:57;99595.81;;;24.36;47.83
68634;BME280;55625;47.072;22.192;2023-06-14T11:36:28;99595.81;;;24.17;51.01
68634;BME280;55625;47.072;22.192;2023-06-14T11:39:05;99596.03;;;24.38;47.42
68634;BME280;55625;47.072;22.192;2023-06-14T11:41:45;99589.56;;;24.13;47.64
68634;BME280;55625;47.072;22.192;2023-06-14T11:44:12;99592.38;;;24.38;46.51
68634;BME280;55625;47.072;22.192;2023-06-14T11:46:38;99587.78;;;24.29;44.95
68634;BME280;55625;47.072;22.192;2023-06-14T11:49:04;99583.03;;;23.75;49.50
68634;BME280;55625;47.072;22.192;2023-06-14T11:51:33;99581.47;;;24.25;49.73
68634;BME280;55625;47.072;22.192;2023-06-14T11:54:03;99569.47;;;24.34;46.55
68634;BME280;55625;47.072;22.192;2023-06-14T11:56:31;99584.06;;;23.78;47.32
68634;BME280;55625;47.072;22.192;2023-06-14T11:58:57;99571.91;;;23.79;47.53
68634;BME280;55625;47.072;22.192;2023-06-14T12:01:24;99562.69;;;24.13;47.04
68634;BME280;55625;47.072;22.192;2023-06-14T12:03:54;99565.59;;;24.13;45.47
68634;BME280;55625;47.072;22.192;2023-06-14T12:06:30;99561.28;;;24.20;49.29
68634;BME280;55625;47.072;22.192;2023-06-14T12:09:07;99555.72;;;24.22;45.10
68634;BME280;55625;47.072;22.192;2023-06-14T12:11:38;99551.00;;;24.51;44.50
68634;BME280;55625;47.072;22.192;2023-06-14T12:14:05;99550.16;;;24.82;44.08
68634;BME280;55625;47.072;22.192;2023-06-14T12:16:35;99545.03;;;25.01;44.93
68634;BME280;55625;47.072;22.192;2023-06-14T12:19:12;99549.91;;;24.67;45.78
68634;BME280;55625;47.072;22.192;2023-06-14T12:21:39;99550.34;;;24.58;46.78
68634;BME280;55625;47.072;22.192;2023-06-14T12:24:09;99547.56;;;24.65;45.57
68634;BME280;55625;47.072;22.192;2023-06-14T12:26:41;99549.69;;;24.91;46.55
68634;BME280;55625;47.072;22.192;2023-06-14T12:29:07;99556.09;;;25.16;44.56
68634;BME280;55625;47.072;22.192;2023-06-14T12:31:34;99546.16;;;25.12;43.04
68634;BME280;55625;47.072;22.192;2023-06-14T12:34:00;99549.69;;;24.91;44.35
68634;BME280;55625;47.072;22.192;2023-06-14T12:36:26;99553.38;;;24.65;42.97
68634;BME280;55625;47.072;22.192;2023-06-14T12:38:52;99540.97;;;24.52;43.11
68634;BME280;55625;47.072;22.192;2023-06-14T12:41:21;99536.13;;;24.41;43.52
68634;BME280;55625;47.072;22.192;2023-06-14T12:43:48;99542.78;;;24.81;42.92
68634;BME280;55625;47.072;22.192;2023-06-14T12:46:14;99541.56;;;25.03;43.15
68634;BME280;55625;47.072;22.192;2023-06-14T12:48:40;99534.28;;;25.10;46.45
68634;BME280;55625;47.072;22.192;2023-06-14T12:51:05;99542.78;;;24.81;43.72
68634;BME280;55625;47.072;22.192;2023-06-14T12:53:31;99530.94;;;24.92;43.19
68634;BME280;55625;47.072;22.192;2023-06-14T12:55:57;99527.81;;;24.90;44.10
68634;BME280;55625;47.072;22.192;2023-06-14T12:58:23;99533.38;;;25.41;42.47
68634;BME280;55625;47.072;22.192;2023-06-14T13:00:49;99530.22;;;25.52;43.08